Home > Products > Valid Products > TAF

000
FTUS43 KGID 172320
TAFGRI
TAF
KGRI 172320Z 1800/1824 17005KT P6SM SCT120
     FM181400 18015G20KT P6SM SCT100 SCT250
     FM181900 18024G30KT P6SM SCT080 SCT250=



000
FTUS43 KGID 171720
TAFGRI
TAF
KGRI 171720Z 1718/1818 VRB06KT P6SM FEW020 SCT120
     FM172000 14010KT P6SM SCT120
     FM180100 17010KT P6SM SCT120 BKN250
     FM181400 18014G18KT P6SM SCT120 BKN250
     FM181700 18020G26KT P6SM SCT120 BKN250=



000
FTUS43 KGID 171133 AAB
TAFGRI
TAF AMD
KGRI 171133Z 1712/1812 34007KT P6SM BKN019
     FM171500 VRB06KT P6SM SCT120
     FM171700 14008KT P6SM FEW120=



000
FTUS43 KGID 171128 AAA
TAFGRI
TAF AMD
KGRI 171128Z 1711/1812 34007KT P6SM BKN019
     FM171500 VRB06KT P6SM SCT120
     FM171700 14008KT P6SM FEW120=



000
FTUS43 KGID 171125
TAFGRI
TAF
KGRI 171125Z 1712/1812 34007KT P6SM BKN019
     FM171200 VRB06KT P6SM SCT120
     FM171700 14008KT P6SM FEW120=



000
FTUS43 KGID 170931 AAB
TAFGRI
TAF AMD
KGRI 170931Z 1710/1806 34007KT P6SM BKN019
     FM171200 VRB06KT P6SM SCT120
     FM171700 14008KT P6SM FEW120=



000
FTUS43 KGID 170557 AAA
TAFGRI
TAF AMD
KGRI 170557Z 1706/1806 35012KT P6SM OVC018
     FM170900 34007KT P6SM BKN020
     FM171200 VRB06KT P6SM SCT120
     FM171700 14008KT P6SM FEW120=



000
FTUS43 KGID 170526
TAFGRI
TAF
KGRI 170526Z 1706/1806 35012KT P6SM OVC020
     FM170900 34007KT P6SM BKN020
     FM171200 VRB06KT P6SM SCT120
     FM171700 14008KT P6SM FEW120=



000
FTUS43 KGID 162325
TAFGRI
TAF
KGRI 162325Z 1700/1724 35019G26KT P6SM BKN025
     FM170400 35014KT P6SM OVC015
     FM171200 01009KT P6SM BKN025
     FM171900 VRB06KT P6SM BKN070=



000
FTUS43 KGID 161741
TAFGRI
TAF
KGRI 161741Z 1618/1718 30014G21KT P6SM BKN040
     FM161900 32020G30KT P6SM BKN040
     FM170200 35015KT P6SM SCT019 BKN040
     FM171700 02009KT P6SM SCT080=



000
FTUS43 KGID 161441 AAA
TAFGRI
TAF AMD
KGRI 161441Z 1615/1712 20015G22KT P6SM BKN150
     FM161600 25013KT P6SM SCT150
     FM161900 31022G30KT P6SM SCT040
     FM170100 36009KT P6SM BKN200=



000
FTUS43 KGID 161128
TAFGRI
TAF
KGRI 161128Z 1612/1712 18015G22KT P6SM SCT120 WS007/21050KT
     FM161300 20006KT P6SM SCT120 WS004/21038KT
     FM161500 26012KT P6SM SCT120
     FM161600 31022G30KT P6SM SCT040
     FM170100 36009KT P6SM BKN200=



000
FTUS43 KGID 160521
TAFGRI
TAF
KGRI 160521Z 1606/1706 18017KT P6SM SCT120 WS007/21050KT
     FM161400 26017G25KT P6SM BKN120
     FM161700 31022G32KT P6SM SCT040
     FM170100 35010KT P6SM SCT250=



000
FTUS43 KGID 160251 AAA
TAFGRI
TAF AMD
KGRI 160251Z 1603/1624 17017KT P6SM BKN200
     FM160400 17015G20KT P6SM BKN200 WS010/21050KT
     FM161400 27012G19KT P6SM SCT040 BKN150
     FM161600 31018G26KT P6SM BKN040
     FM162300 35015KT P6SM BKN040=



000
FTUS43 KGID 152342
TAFGRI
TAF
KGRI 152342Z 1600/1624 19017G25KT P6SM BKN200
     FM160400 18015G24KT P6SM BKN200 WS010/21050KT
     FM161400 27012G19KT P6SM SCT040 BKN150
     FM161600 31018G26KT P6SM BKN040
     FM162300 35015KT P6SM BKN040=



000
FTUS43 KGID 151720
TAFGRI
TAF
KGRI 151720Z 1518/1618 19017G27KT P6SM SCT200
     FM160400 18015G24KT P6SM BKN150 WS010/21050KT
     FM161400 30015G25KT P6SM BKN200
     FM161700 31018G28KT P6SM SCT050 BKN200=



000
FTUS43 KGID 151120
TAFGRI
TAF
KGRI 151120Z 1512/1612 18008KT P6SM SCT250
     FM151800 19018G27KT P6SM SCT150 BKN250
     FM160400 18018G27KT P6SM BKN150 WS010/21050KT=



000
FTUS43 KGID 150532
TAFGRI
TAF
KGRI 150532Z 1506/1606 VRB03KT P6SM SKC
     FM151200 18007KT P6SM SCT250
     FM151800 19018G27KT P6SM BKN150
     FM160400 17018G25KT P6SM BKN150 WS010/21050KT=



    US Dept of Commerce
    National Oceanic and Atmospheric Administration
    National Weather Service
    1325 East West Highway
    Silver Spring, MD 20910
    Page Author: NWS Internet Services Team
Disclaimer
Information Quality
Credits
Glossary
Privacy Policy
Freedom of Information Act (FOIA)
About Us
Career Opportunities